createdAt,value
2023-02-23T00:00:21.354Z,49.45
2023-02-23T00:00:56.435Z,49.32
2023-02-23T00:01:30.308Z,49.42
2023-02-23T00:02:07.469Z,49.35
2023-02-23T00:02:42.189Z,49.09
2023-02-23T00:03:14.482Z,49.23
2023-02-23T00:03:49.931Z,49.31
2023-02-23T00:04:23.701Z,49.26
2023-02-23T00:04:55.800Z,49.35
2023-02-23T00:05:31.597Z,49.33
2023-02-23T00:06:04.126Z,49.48
2023-02-23T00:06:37.508Z,49.07
2023-02-23T00:07:12.444Z,49.59
2023-02-23T00:07:45.296Z,49.26
2023-02-23T00:08:20.408Z,49.45
2023-02-23T00:08:55.576Z,49.03
2023-02-23T00:09:35.378Z,49.21
2023-02-23T00:10:11.460Z,49.01
2023-02-23T00:10:46.104Z,49.44
2023-02-23T00:11:19.482Z,49.34
2023-02-23T00:11:53.147Z,49.48
2023-02-23T00:12:28.410Z,49.02
2023-02-23T00:13:01.246Z,49.13
2023-02-23T00:13:37.455Z,49.04
2023-02-23T00:14:09.598Z,48.65
2023-02-23T00:14:44.346Z,48.93
2023-02-23T00:15:16.467Z,49.13
2023-02-23T00:15:48.771Z,48.78
2023-02-23T00:16:25.327Z,48.70
2023-02-23T00:16:57.590Z,48.69
2023-02-23T00:17:31.618Z,49.06
2023-02-23T00:18:07.068Z,49.00
2023-02-23T00:18:45.249Z,49.06
2023-02-23T00:19:17.752Z,48.72
2023-02-23T00:19:52.453Z,48.85
2023-02-23T00:20:27.456Z,48.87
2023-02-23T00:20:59.566Z,48.64
2023-02-23T00:21:35.285Z,48.70
2023-02-23T00:22:07.370Z,48.65
2023-02-23T00:22:40.296Z,48.75
2023-02-23T00:23:15.173Z,49.13
2023-02-23T00:23:54.955Z,49.14
2023-02-23T00:24:27.215Z,48.95
2023-02-23T00:25:03.207Z,48.91
2023-02-23T00:25:38.911Z,49.06
2023-02-23T00:26:13.668Z,49.01
2023-02-23T00:26:51.400Z,48.54
2023-02-23T00:27:23.693Z,48.96
2023-02-23T00:27:55.940Z,49.16
2023-02-23T00:28:31.099Z,48.78
2023-02-23T00:29:04.896Z,48.38
2023-02-23T00:29:40.164Z,48.81
2023-02-23T00:30:17.694Z,48.59
2023-02-23T00:30:53.294Z,48.59
2023-02-23T00:31:27.291Z,49.04
2023-02-23T00:32:02.186Z,48.53
2023-02-23T00:32:35.303Z,48.95
2023-02-23T00:33:07.889Z,48.82
2023-02-23T00:33:43.576Z,48.72
2023-02-23T00:34:21.096Z,48.51
2023-02-23T00:34:53.896Z,49.02
2023-02-23T00:35:28.600Z,48.54
2023-02-23T00:36:05.422Z,48.43
2023-02-23T00:36:38.907Z,48.25
2023-02-23T00:37:14.377Z,48.67
2023-02-23T00:37:48.324Z,48.26
2023-02-23T00:38:20.491Z,48.13
2023-02-23T00:39:00.446Z,48.75
2023-02-23T00:39:32.692Z,48.78
2023-02-23T00:40:08.462Z,48.32
2023-02-23T00:40:43.778Z,48.52
2023-02-23T00:41:17.999Z,48.49
2023-02-23T00:41:52.520Z,48.29
2023-02-23T00:42:32.756Z,48.56
2023-02-23T00:43:06.782Z,48.76
2023-02-23T00:43:47.522Z,48.47
2023-02-23T00:44:23.617Z,48.12
2023-02-23T00:44:55.729Z,48.33
2023-02-23T00:45:27.816Z,48.12
2023-02-23T00:46:05.635Z,48.67
2023-02-23T00:46:38.408Z,48.70
2023-02-23T00:47:13.065Z,48.51
2023-02-23T00:47:45.502Z,48.57
2023-02-23T00:48:18.926Z,48.31
2023-02-23T00:48:55.386Z,48.71
2023-02-23T00:49:27.796Z,48.57
2023-02-23T00:50:00.033Z,48.26
2023-02-23T00:50:35.765Z,48.46
2023-02-23T00:51:07.877Z,48.86
2023-02-23T00:51:40.353Z,48.76
2023-02-23T00:52:16.367Z,48.47
2023-02-23T00:52:48.437Z,48.69
2023-02-23T00:53:20.506Z,48.07
2023-02-23T00:53:59.788Z,48.14
2023-02-23T00:54:32.004Z,48.42
2023-02-23T00:55:04.672Z,48.61
2023-02-23T00:55:43.962Z,48.42
2023-02-23T00:56:16.646Z,48.12
2023-02-23T00:56:49.506Z,48.58
2023-02-23T00:57:24.356Z,48.37
2023-02-23T00:57:58.456Z,48.22
2023-02-23T00:58:31.553Z,48.56
2023-02-23T00:59:06.943Z,48.30
2023-02-23T00:59:39.100Z,48.21
2023-02-23T01:00:20.194Z,48.40
2023-02-23T01:00:56.426Z,48.34
2023-02-23T01:01:29.230Z,48.63
2023-02-23T01:02:01.339Z,48.28
2023-02-23T01:02:36.049Z,48.34
2023-02-23T01:03:08.241Z,48.46
2023-02-23T01:03:43.231Z,48.50
2023-02-23T01:04:18.115Z,48.68
2023-02-23T01:04:50.461Z,48.80
2023-02-23T01:05:22.532Z,48.33
2023-02-23T01:05:57.997Z,48.17
2023-02-23T01:06:30.334Z,48.49
2023-02-23T01:07:06.517Z,48.39
2023-02-23T01:07:41.265Z,48.29
2023-02-23T01:08:15.526Z,48.48
2023-02-23T01:08:49.503Z,48.24
2023-02-23T01:09:31.631Z,48.26
2023-02-23T01:10:18.930Z,48.31
2023-02-23T01:10:53.210Z,48.66
2023-02-23T01:11:31.488Z,48.42
2023-02-23T01:12:07.605Z,48.19
2023-02-23T01:12:40.446Z,48.39
2023-02-23T01:13:18.176Z,48.55
2023-02-23T01:13:52.778Z,48.77
2023-02-23T01:14:25.215Z,48.57
2023-02-23T01:15:00.215Z,48.43
2023-02-23T01:15:32.664Z,48.83
2023-02-23T01:16:07.157Z,48.56
2023-02-23T01:16:41.809Z,48.57
2023-02-23T01:17:13.969Z,48.37
2023-02-23T01:17:48.597Z,48.42
2023-02-23T01:18:21.409Z,48.40
2023-02-23T01:18:56.353Z,48.81
2023-02-23T01:19:34.105Z,48.55
2023-02-23T01:20:15.695Z,48.54
2023-02-23T01:20:51.054Z,48.75
2023-02-23T01:21:25.505Z,48.64
2023-02-23T01:21:58.212Z,48.53
2023-02-23T01:22:31.944Z,48.94
2023-02-23T01:23:07.741Z,48.66
2023-02-23T01:23:39.885Z,48.97
2023-02-23T01:24:13.036Z,48.85
2023-02-23T01:24:50.283Z,48.57
2023-02-23T01:25:22.461Z,48.83
2023-02-23T01:25:54.565Z,48.94
2023-02-23T01:26:31.029Z,48.41
2023-02-23T01:27:04.065Z,48.57
2023-02-23T01:27:36.968Z,48.81
2023-02-23T01:28:11.860Z,48.69
2023-02-23T01:28:44.012Z,48.65
2023-02-23T01:29:18.052Z,48.48
2023-02-23T01:29:52.835Z,48.61
2023-02-23T01:30:25.139Z,48.41
2023-02-23T01:30:57.505Z,48.63
2023-02-23T01:31:30.574Z,48.56
2023-02-23T01:32:05.547Z,48.63
2023-02-23T01:32:38.127Z,48.52
2023-02-23T01:33:10.250Z,48.70
2023-02-23T01:33:46.129Z,48.80
2023-02-23T01:34:19.565Z,49.06
2023-02-23T01:34:51.986Z,49.31
2023-02-23T01:35:26.734Z,48.91
2023-02-23T01:36:00.721Z,49.13
2023-02-23T01:36:34.905Z,49.32
2023-02-23T01:37:09.729Z,48.97
2023-02-23T01:37:43.630Z,48.98
2023-02-23T01:38:15.822Z,49.42
2023-02-23T01:38:50.944Z,49.26
2023-02-23T01:39:23.225Z,48.89
2023-02-23T01:39:57.886Z,49.40
2023-02-23T01:40:32.892Z,49.04
2023-02-23T01:41:07.136Z,49.20
2023-02-23T01:41:42.513Z,49.26
2023-02-23T01:42:17.406Z,49.52
2023-02-23T01:42:51.434Z,49.44
2023-02-23T01:43:26.239Z,49.11
2023-02-23T01:43:59.465Z,49.04
2023-02-23T01:45:19.187Z,49.43
2023-02-23T01:45:52.229Z,49.54
2023-02-23T01:46:27.093Z,49.55
2023-02-23T01:46:59.590Z,49.47
2023-02-23T01:47:31.704Z,49.30
2023-02-23T01:48:12.547Z,49.41
2023-02-23T01:48:44.942Z,49.86
2023-02-23T01:49:22.702Z,49.59
2023-02-23T01:49:57.393Z,49.61
2023-02-23T01:50:36.461Z,49.75
2023-02-23T01:51:13.672Z,49.98
2023-02-23T01:51:52.500Z,49.53
2023-02-23T01:52:24.665Z,49.82
2023-02-23T01:52:57.013Z,49.74
2023-02-23T01:53:36.424Z,49.88
2023-02-23T01:54:16.124Z,49.90
2023-02-23T01:54:52.262Z,49.71
2023-02-23T01:55:30.328Z,49.89
2023-02-23T01:56:11.353Z,49.83
2023-02-23T01:56:49.328Z,49.98
2023-02-23T01:57:27.542Z,49.89
2023-02-23T01:58:11.743Z,50.06
2023-02-23T01:58:51.991Z,49.89
2023-02-23T01:59:28.557Z,50.14
2023-02-23T02:00:01.475Z,49.97
2023-02-23T02:00:50.511Z,49.98
2023-02-23T02:01:23.776Z,50.36
2023-02-23T02:01:56.947Z,49.94
2023-02-23T02:02:34.006Z,49.97
2023-02-23T02:03:13.159Z,50.51
2023-02-23T02:03:52.518Z,50.32
2023-02-23T02:04:26.119Z,50.08
2023-02-23T02:04:58.924Z,50.43
2023-02-23T02:05:36.183Z,50.23
2023-02-23T02:06:14.195Z,50.07
2023-02-23T02:06:53.922Z,50.12
2023-02-23T02:07:29.121Z,50.50
2023-02-23T02:08:01.510Z,50.31
2023-02-23T02:08:44.760Z,50.42
2023-02-23T02:09:18.464Z,50.23
2023-02-23T02:10:21.915Z,50.30
2023-02-23T02:10:59.372Z,50.38
2023-02-23T02:11:36.199Z,50.52
2023-02-23T02:12:12.060Z,50.21
2023-02-23T02:12:52.080Z,50.66
2023-02-23T02:13:29.209Z,50.45
2023-02-23T02:14:12.938Z,50.30
2023-02-23T02:14:45.742Z,50.36
2023-02-23T02:15:18.532Z,50.50
2023-02-23T02:16:13.195Z,50.44
2023-02-23T02:17:02.515Z,50.44
2023-02-23T02:17:45.582Z,50.28
2023-02-23T02:18:24.018Z,50.31
2023-02-23T02:19:18.773Z,50.24
2023-02-23T02:20:42.867Z,50.23
2023-02-23T02:21:40.211Z,50.33
2023-02-23T02:22:44.472Z,50.30
2023-02-23T02:23:52.450Z,50.57
2023-02-23T02:24:59.826Z,50.77
2023-02-23T02:25:47.819Z,50.51
2023-02-23T02:26:35.535Z,50.91
2023-02-23T02:27:22.460Z,50.72
2023-02-23T02:28:32.820Z,50.78
2023-02-23T02:29:37.739Z,50.77
2023-02-23T02:30:44.695Z,50.74
2023-02-23T02:31:45.239Z,50.94
2023-02-23T02:32:58.160Z,50.55
2023-02-23T02:33:38.034Z,50.77
2023-02-23T02:34:34.429Z,50.92
2023-02-23T02:35:53.632Z,50.66
2023-02-23T02:36:42.540Z,51.18
2023-02-23T02:37:33.298Z,50.92
2023-02-23T02:38:20.120Z,50.82
2023-02-23T02:39:01.124Z,50.99
2023-02-23T02:39:46.728Z,50.80
2023-02-23T02:40:30.858Z,50.71
2023-02-23T02:41:12.255Z,51.03
2023-02-23T02:41:53.719Z,50.88
2023-02-23T02:42:35.898Z,50.93
2023-02-23T02:43:15.178Z,51.11
2023-02-23T02:43:54.805Z,50.85
2023-02-23T02:44:33.982Z,50.99
2023-02-23T02:45:15.884Z,50.89
2023-02-23T02:45:55.959Z,50.74
2023-02-23T02:46:35.264Z,51.01
2023-02-23T02:47:12.668Z,51.03
2023-02-23T02:47:53.773Z,50.81
2023-02-23T02:48:38.748Z,51.05
2023-02-23T02:49:20.515Z,51.11
2023-02-23T02:50:02.580Z,51.27
2023-02-23T02:50:46.403Z,51.29
2023-02-23T02:51:24.292Z,51.44
2023-02-23T02:52:05.691Z,50.85
2023-02-23T02:52:48.032Z,51.16
2023-02-23T02:53:26.911Z,51.06
2023-02-23T02:54:08.062Z,51.18
2023-02-23T02:54:44.209Z,50.88
2023-02-23T02:55:23.882Z,50.88
2023-02-23T02:56:05.548Z,51.14
2023-02-23T02:56:43.361Z,51.35
2023-02-23T02:57:18.632Z,50.92
2023-02-23T02:57:55.538Z,50.96
2023-02-23T02:58:29.621Z,50.95
2023-02-23T02:59:03.620Z,51.11
2023-02-23T02:59:58.925Z,51.17
2023-02-23T03:00:52.566Z,51.26
2023-02-23T03:01:39.973Z,51.18
2023-02-23T03:02:31.786Z,51.13
2023-02-23T03:03:20.138Z,51.26
2023-02-23T03:04:08.097Z,51.21
2023-02-23T03:04:55.678Z,51.11
2023-02-23T03:05:50.129Z,51.24
2023-02-23T03:06:42.167Z,51.25
2023-02-23T03:07:41.702Z,51.05
2023-02-23T03:08:37.177Z,51.53
2023-02-23T03:09:36.088Z,51.54
2023-02-23T03:10:29.933Z,51.46
2023-02-23T03:11:21.094Z,51.67
2023-02-23T03:12:19.722Z,51.77
2023-02-23T03:13:16.748Z,51.33
2023-02-23T03:14:17.332Z,51.77
2023-02-23T03:15:15.232Z,51.49
2023-02-23T03:16:15.512Z,51.60
2023-02-23T03:17:11.257Z,51.87
2023-02-23T03:18:02.762Z,51.74
2023-02-23T03:19:05.714Z,51.61
2023-02-23T03:20:03.614Z,51.76
2023-02-23T03:20:58.926Z,51.75
2023-02-23T03:21:52.159Z,52.07
2023-02-23T03:22:43.745Z,52.02
2023-02-23T03:23:39.826Z,51.85
2023-02-23T03:24:35.017Z,51.88
2023-02-23T03:25:27.062Z,51.85
2023-02-23T03:26:20.968Z,51.84
2023-02-23T03:27:13.677Z,51.87
2023-02-23T03:28:06.673Z,52.30
2023-02-23T03:29:01.594Z,52.27
2023-02-23T03:29:55.560Z,52.32
2023-02-23T03:30:52.643Z,52.42
2023-02-23T03:31:51.084Z,52.25
2023-02-23T03:32:44.666Z,52.06
2023-02-23T03:33:39.271Z,52.11
2023-02-23T03:34:32.520Z,52.44
2023-02-23T03:35:27.295Z,52.21
2023-02-23T03:36:20.291Z,52.37
2023-02-23T03:37:17.173Z,52.36
2023-02-23T03:38:09.227Z,52.54
2023-02-23T03:39:05.252Z,52.21
2023-02-23T03:39:57.861Z,52.53
2023-02-23T03:40:50.029Z,52.79
2023-02-23T03:41:39.857Z,52.64
2023-02-23T03:42:33.136Z,52.60
2023-02-23T03:43:25.406Z,52.50
2023-02-23T03:44:18.253Z,52.96
2023-02-23T03:45:07.935Z,53.12
2023-02-23T03:45:56.197Z,52.94
2023-02-23T03:46:46.392Z,53.29
2023-02-23T03:47:37.760Z,52.93
2023-02-23T03:48:31.252Z,52.90
2023-02-23T03:49:22.767Z,52.68
2023-02-23T03:50:11.648Z,52.82
2023-02-23T03:51:04.199Z,52.81
2023-02-23T03:51:55.080Z,52.94
2023-02-23T03:52:48.437Z,52.86
2023-02-23T03:53:44.240Z,53.25
2023-02-23T03:54:40.657Z,53.22
2023-02-23T03:55:33.464Z,53.24
2023-02-23T03:56:24.781Z,53.19
2023-02-23T03:57:16.624Z,52.89
2023-02-23T03:58:06.861Z,52.95
2023-02-23T03:58:57.881Z,52.97
2023-02-23T03:59:49.089Z,52.65
2023-02-23T04:00:40.655Z,52.83
2023-02-23T04:01:30.102Z,53.09
2023-02-23T04:02:19.735Z,52.71
2023-02-23T04:03:08.886Z,52.63
2023-02-23T04:03:59.868Z,52.59
2023-02-23T04:04:48.667Z,52.74
2023-02-23T04:05:38.231Z,52.51
2023-02-23T04:06:29.951Z,53.04
2023-02-23T04:07:18.774Z,53.01
2023-02-23T04:08:07.819Z,52.76
2023-02-23T04:08:56.052Z,53.10
2023-02-23T04:09:46.605Z,52.69
2023-02-23T04:10:34.010Z,52.86
2023-02-23T04:11:30.827Z,53.03
2023-02-23T04:12:25.420Z,53.09
2023-02-23T04:13:17.296Z,52.69
2023-02-23T04:13:58.784Z,52.86
2023-02-23T04:14:38.690Z,53.20
2023-02-23T04:15:15.393Z,52.84
2023-02-23T04:15:52.869Z,53.15
2023-02-23T04:16:25.205Z,53.12
2023-02-23T04:16:58.384Z,53.19
2023-02-23T04:17:33.576Z,53.27
2023-02-23T04:18:07.271Z,53.05
2023-02-23T04:18:40.279Z,53.24
2023-02-23T04:19:15.413Z,52.91
2023-02-23T04:19:51.173Z,52.92
2023-02-23T04:20:23.568Z,52.96
2023-02-23T04:21:00.231Z,53.26
2023-02-23T04:21:32.368Z,52.89
2023-02-23T04:22:04.553Z,52.82
2023-02-23T04:22:39.313Z,53.26
2023-02-23T04:23:11.521Z,52.82
2023-02-23T04:23:43.686Z,53.25
2023-02-23T04:24:18.358Z,53.17
2023-02-23T04:24:53.172Z,53.17
2023-02-23T04:25:26.913Z,53.37
2023-02-23T04:26:01.805Z,53.15
2023-02-23T04:26:33.876Z,53.29
2023-02-23T04:27:06.418Z,53.40
2023-02-23T04:27:38.672Z,53.65
2023-02-23T04:28:13.829Z,53.32
2023-02-23T04:28:46.027Z,53.39
2023-02-23T04:29:18.110Z,53.36
2023-02-23T04:29:52.937Z,53.16
2023-02-23T04:30:25.879Z,53.39
2023-02-23T04:30:58.200Z,53.16
2023-02-23T04:31:33.029Z,52.90
2023-02-23T04:32:05.402Z,53.21
2023-02-23T04:32:38.239Z,52.92
2023-02-23T04:33:13.325Z,53.37
2023-02-23T04:33:45.420Z,52.92
2023-02-23T04:34:17.509Z,53.29
2023-02-23T04:34:52.316Z,52.92
2023-02-23T04:35:24.861Z,53.12
2023-02-23T04:35:57.018Z,53.53
2023-02-23T04:36:31.664Z,53.47
2023-02-23T04:37:03.789Z,53.43
2023-02-23T04:37:36.107Z,53.14
2023-02-23T04:38:08.500Z,52.95
2023-02-23T04:38:43.289Z,53.02
2023-02-23T04:39:15.564Z,52.96
2023-02-23T04:39:49.808Z,53.29
2023-02-23T04:40:27.080Z,53.34
2023-02-23T04:40:59.133Z,52.83
2023-02-23T04:41:31.315Z,53.08
2023-02-23T04:42:06.580Z,53.27
2023-02-23T04:42:39.252Z,53.04
2023-02-23T04:43:12.637Z,52.97
2023-02-23T04:43:47.306Z,52.86
2023-02-23T04:44:19.713Z,53.11
2023-02-23T04:44:51.847Z,53.01
2023-02-23T04:45:27.325Z,53.06
2023-02-23T04:45:59.445Z,53.23
2023-02-23T04:46:31.753Z,53.18
2023-02-23T04:47:06.904Z,53.16
2023-02-23T04:47:39.272Z,52.91
2023-02-23T04:48:13.906Z,53.15
2023-02-23T04:48:45.983Z,52.81
2023-02-23T04:49:18.490Z,53.08
2023-02-23T04:49:50.920Z,53.14
2023-02-23T04:50:25.700Z,53.14
2023-02-23T04:50:57.839Z,52.97
2023-02-23T04:51:32.409Z,52.70
2023-02-23T04:52:04.995Z,53.19
2023-02-23T04:52:40.425Z,53.29
2023-02-23T04:53:12.543Z,53.30
2023-02-23T04:53:44.788Z,52.95
2023-02-23T04:54:19.445Z,53.10
2023-02-23T04:54:51.509Z,52.85
2023-02-23T04:55:26.341Z,52.82
2023-02-23T04:56:01.080Z,52.99
2023-02-23T04:56:33.907Z,52.85
2023-02-23T04:57:06.636Z,52.91
2023-02-23T04:57:41.349Z,52.90
2023-02-23T04:58:13.910Z,53.34
2023-02-23T04:58:45.976Z,53.40
2023-02-23T04:59:20.836Z,53.33
2023-02-23T04:59:52.943Z,53.14
2023-02-23T05:00:25.136Z,53.39
2023-02-23T05:01:07.624Z,53.45
2023-02-23T05:01:39.902Z,53.46
2023-02-23T05:02:12.157Z,53.26
2023-02-23T05:02:47.727Z,53.24
2023-02-23T05:03:21.072Z,53.05
2023-02-23T05:03:53.861Z,53.29
2023-02-23T05:04:28.599Z,53.16
2023-02-23T05:05:00.816Z,53.20
2023-02-23T05:05:32.994Z,53.01
2023-02-23T05:06:08.103Z,53.32
2023-02-23T05:06:40.307Z,53.17
2023-02-23T05:07:12.459Z,53.18
2023-02-23T05:07:47.125Z,53.03
2023-02-23T05:08:19.226Z,52.84
2023-02-23T05:08:51.322Z,53.19
2023-02-23T05:09:26.201Z,52.81
2023-02-23T05:09:58.328Z,53.00
2023-02-23T05:10:33.156Z,52.99
2023-02-23T05:11:09.517Z,53.32
2023-02-23T05:11:41.596Z,52.87
2023-02-23T05:12:14.414Z,52.98
2023-02-23T05:12:49.109Z,52.75
2023-02-23T05:13:21.914Z,53.08
2023-02-23T05:13:54.780Z,53.00
2023-02-23T05:14:29.457Z,53.29
2023-02-23T05:15:01.664Z,53.01
2023-02-23T05:15:33.824Z,53.06
2023-02-23T05:16:09.949Z,52.80
2023-02-23T05:16:42.010Z,53.05
2023-02-23T05:17:14.076Z,53.07
2023-02-23T05:17:48.892Z,53.05
2023-02-23T05:18:20.952Z,53.15
2023-02-23T05:18:53.573Z,53.26
2023-02-23T05:19:28.263Z,53.04
2023-02-23T05:20:00.341Z,52.78
2023-02-23T05:20:32.571Z,53.27
2023-02-23T05:21:09.600Z,53.35
2023-02-23T05:21:41.977Z,53.28
2023-02-23T05:22:14.111Z,53.46
2023-02-23T05:22:48.830Z,53.11
2023-02-23T05:23:21.948Z,52.86
2023-02-23T05:23:54.045Z,53.14
2023-02-23T05:24:28.747Z,52.86
2023-02-23T05:25:01.702Z,53.16
2023-02-23T05:25:38.876Z,52.93
2023-02-23T05:26:15.547Z,53.20
2023-02-23T05:26:48.101Z,52.75
2023-02-23T05:27:20.249Z,52.99
2023-02-23T05:27:54.990Z,52.65
2023-02-23T05:28:27.129Z,52.57
2023-02-23T05:28:59.929Z,52.86
2023-02-23T05:29:34.681Z,52.99
2023-02-23T05:30:10.066Z,52.88
2023-02-23T05:30:44.965Z,52.97
2023-02-23T05:31:17.726Z,52.83
2023-02-23T05:31:50.366Z,52.88
2023-02-23T05:32:25.217Z,52.86
2023-02-23T05:32:57.395Z,53.07
2023-02-23T05:33:29.557Z,53.05
2023-02-23T05:34:04.379Z,53.00
2023-02-23T05:34:36.887Z,53.02
2023-02-23T05:35:09.907Z,53.32
2023-02-23T05:35:44.557Z,53.15
2023-02-23T05:36:18.576Z,53.14
2023-02-23T05:36:50.667Z,53.30
2023-02-23T05:37:25.444Z,53.12
2023-02-23T05:37:57.640Z,53.27
2023-02-23T05:38:29.779Z,53.25
2023-02-23T05:39:04.408Z,53.08
2023-02-23T05:39:37.288Z,53.31
2023-02-23T05:40:13.388Z,53.35
2023-02-23T05:40:48.256Z,52.79
2023-02-23T05:41:22.053Z,52.72
2023-02-23T05:41:56.948Z,52.73
2023-02-23T05:42:29.060Z,53.09
2023-02-23T05:43:01.360Z,52.82
2023-02-23T05:43:36.380Z,52.98
2023-02-23T05:44:08.509Z,52.97
2023-02-23T05:44:40.577Z,52.69
2023-02-23T05:45:15.251Z,52.64
2023-02-23T05:45:47.446Z,52.95
2023-02-23T05:46:22.510Z,52.95
2023-02-23T05:46:57.296Z,52.72
2023-02-23T05:47:29.387Z,53.21
2023-02-23T05:48:01.531Z,52.95
2023-02-23T05:48:36.791Z,53.05
2023-02-23T05:49:10.296Z,53.16
2023-02-23T05:49:46.292Z,53.22
2023-02-23T05:50:18.864Z,52.81
2023-02-23T05:50:50.937Z,52.93
2023-02-23T05:51:23.101Z,52.99
2023-02-23T05:51:57.822Z,53.06
2023-02-23T05:52:29.911Z,53.17
2023-02-23T05:53:02.502Z,53.33
2023-02-23T05:53:37.267Z,53.17
2023-02-23T05:54:10.343Z,53.27
2023-02-23T05:54:42.425Z,53.34
2023-02-23T05:55:17.137Z,53.02
2023-02-23T05:55:52.294Z,53.08
2023-02-23T05:56:24.908Z,53.10
2023-02-23T05:57:01.735Z,53.12
2023-02-23T05:57:33.932Z,53.16
2023-02-23T05:58:08.852Z,53.36
2023-02-23T05:58:40.995Z,53.23
2023-02-23T05:59:13.529Z,53.08
2023-02-23T05:59:48.342Z,53.43
2023-02-23T06:00:21.311Z,53.48
2023-02-23T06:00:53.761Z,53.11
2023-02-23T06:01:29.690Z,53.35
2023-02-23T06:02:02.413Z,53.47
2023-02-23T06:02:34.702Z,53.25
2023-02-23T06:03:09.486Z,53.25
2023-02-23T06:03:41.925Z,53.22
2023-02-23T06:04:14.366Z,53.41
2023-02-23T06:04:49.228Z,53.53
2023-02-23T06:05:21.436Z,53.67
2023-02-23T06:05:54.860Z,53.41
2023-02-23T06:06:30.080Z,53.60
2023-02-23T06:07:02.197Z,53.44
2023-02-23T06:07:34.688Z,53.65
2023-02-23T06:08:09.566Z,53.47
2023-02-23T06:08:42.218Z,53.05
2023-02-23T06:09:17.492Z,53.30
2023-02-23T06:09:49.597Z,53.47
2023-02-23T06:10:21.767Z,53.58
2023-02-23T06:10:59.081Z,53.03
2023-02-23T06:11:31.757Z,53.21
2023-02-23T06:12:04.206Z,52.96
2023-02-23T06:12:38.870Z,53.14
2023-02-23T06:13:11.409Z,52.67
2023-02-23T06:13:43.585Z,52.83
2023-02-23T06:14:18.486Z,52.90
2023-02-23T06:14:50.948Z,52.50
2023-02-23T06:15:23.051Z,52.91
2023-02-23T06:15:57.843Z,52.74
2023-02-23T06:16:30.315Z,52.77
2023-02-23T06:17:02.549Z,52.76
2023-02-23T06:17:38.476Z,52.75
2023-02-23T06:18:11.035Z,52.85
2023-02-23T06:18:43.129Z,52.87
2023-02-23T06:19:17.833Z,53.17
2023-02-23T06:19:49.922Z,53.14
2023-02-23T06:20:22.885Z,52.93
2023-02-23T06:20:58.533Z,52.74
2023-02-23T06:21:31.504Z,52.93
2023-02-23T06:22:03.776Z,52.96
2023-02-23T06:22:38.497Z,52.94
2023-02-23T06:23:10.742Z,53.06
2023-02-23T06:23:42.859Z,52.91
2023-02-23T06:24:18.149Z,53.06
2023-02-23T06:24:50.352Z,53.02
2023-02-23T06:25:22.419Z,52.68
2023-02-23T06:25:58.705Z,52.66
2023-02-23T06:26:34.165Z,52.49
2023-02-23T06:27:07.342Z,52.82
2023-02-23T06:27:39.922Z,52.80
2023-02-23T06:28:15.369Z,52.76
2023-02-23T06:28:47.502Z,52.63
2023-02-23T06:29:19.593Z,52.60
2023-02-23T06:29:54.265Z,52.64
2023-02-23T06:30:26.428Z,52.75
2023-02-23T06:30:58.668Z,52.51
2023-02-23T06:31:33.509Z,52.90
2023-02-23T06:32:06.498Z,52.35
2023-02-23T06:32:38.785Z,52.50
2023-02-23T06:33:17.119Z,52.31
2023-02-23T06:33:49.257Z,52.43
2023-02-23T06:34:23.949Z,52.38
2023-02-23T06:34:56.100Z,51.90
2023-02-23T06:35:29.961Z,52.18
2023-02-23T06:36:04.718Z,51.88
2023-02-23T06:36:37.227Z,51.96
2023-02-23T06:37:09.875Z,51.85
2023-02-23T06:37:44.597Z,51.39
2023-02-23T06:38:17.015Z,51.48
2023-02-23T06:38:49.279Z,51.80
2023-02-23T06:39:24.002Z,51.68
2023-02-23T06:39:56.078Z,51.71
2023-02-23T06:40:28.860Z,51.67
2023-02-23T06:41:10.208Z,51.30
2023-02-23T06:41:42.589Z,51.73
2023-02-23T06:42:15.529Z,51.44
2023-02-23T06:42:50.543Z,51.47
2023-02-23T06:43:23.392Z,51.37
2023-02-23T06:43:55.788Z,51.01
2023-02-23T06:44:30.546Z,51.14
2023-02-23T06:45:02.683Z,51.44
2023-02-23T06:45:34.842Z,51.35
2023-02-23T06:46:09.618Z,51.34
2023-02-23T06:46:41.906Z,51.84
2023-02-23T06:47:14.242Z,51.97
2023-02-23T06:47:49.361Z,52.16
2023-02-23T06:48:21.450Z,52.10
2023-02-23T06:48:55.864Z,51.70
2023-02-23T06:49:30.529Z,51.78
2023-02-23T06:50:04.086Z,51.55
2023-02-23T06:50:36.211Z,51.50
2023-02-23T06:51:10.941Z,51.92
2023-02-23T06:51:43.029Z,51.59
2023-02-23T06:52:15.376Z,51.70
2023-02-23T06:52:50.389Z,51.60
2023-02-23T06:53:23.314Z,51.59
2023-02-23T06:53:55.574Z,51.52
2023-02-23T06:54:30.229Z,51.35
2023-02-23T06:55:02.319Z,51.77
2023-02-23T06:55:34.509Z,52.00
2023-02-23T06:56:12.822Z,51.88
2023-02-23T06:56:44.902Z,51.68
2023-02-23T06:57:17.148Z,52.00
2023-02-23T06:57:53.582Z,51.68
2023-02-23T06:58:26.058Z,52.00
2023-02-23T06:59:00.751Z,51.55
2023-02-23T06:59:32.847Z,51.75
2023-02-23T07:00:06.241Z,51.71
2023-02-23T07:00:43.123Z,51.55
2023-02-23T07:01:15.811Z,51.63
2023-02-23T07:01:48.017Z,51.90
2023-02-23T07:02:22.825Z,51.64
2023-02-23T07:02:55.042Z,52.19
2023-02-23T07:03:29.720Z,52.27
2023-02-23T07:04:01.962Z,52.27
2023-02-23T07:04:34.110Z,52.27
2023-02-23T07:05:09.218Z,52.32
2023-02-23T07:05:41.315Z,52.32
2023-02-23T07:06:13.387Z,52.33
2023-02-23T07:06:48.495Z,51.92
2023-02-23T07:07:20.594Z,51.90
2023-02-23T07:07:52.679Z,51.83
2023-02-23T07:08:27.467Z,51.89
2023-02-23T07:08:59.649Z,51.98
2023-02-23T07:09:31.862Z,51.76
2023-02-23T07:10:07.598Z,51.98
2023-02-23T07:10:39.738Z,52.17
2023-02-23T07:11:19.795Z,52.16
2023-02-23T07:11:52.174Z,51.74
2023-02-23T07:12:24.332Z,51.98
2023-02-23T07:12:59.086Z,51.70
2023-02-23T07:13:31.303Z,51.78
2023-02-23T07:14:03.538Z,51.46
2023-02-23T07:14:38.260Z,51.61
2023-02-23T07:15:11.441Z,51.63
2023-02-23T07:15:46.164Z,52.25
2023-02-23T07:16:18.380Z,52.29
2023-02-23T07:16:50.509Z,52.14
2023-02-23T07:17:25.211Z,52.41
2023-02-23T07:17:57.642Z,52.26
2023-02-23T07:18:29.857Z,52.57
2023-02-23T07:19:04.531Z,52.71
2023-02-23T07:19:36.686Z,52.69
2023-02-23T07:20:10.916Z,52.81
2023-02-23T07:20:45.636Z,52.99
2023-02-23T07:21:17.891Z,52.88
2023-02-23T07:21:50.250Z,52.68
2023-02-23T07:22:27.857Z,52.48
2023-02-23T07:23:00.719Z,52.72
2023-02-23T07:23:35.597Z,52.64
2023-02-23T07:24:08.806Z,52.34
2023-02-23T07:24:40.945Z,52.42
2023-02-23T07:25:15.582Z,51.97
2023-02-23T07:25:47.647Z,52.01
2023-02-23T07:26:24.906Z,52.47
2023-02-23T07:26:57.016Z,52.70
2023-02-23T07:27:29.116Z,52.56
2023-02-23T07:28:04.131Z,52.66
2023-02-23T07:28:37.209Z,52.54
2023-02-23T07:29:12.440Z,52.76
2023-02-23T07:29:47.118Z,52.59
2023-02-23T07:30:19.921Z,52.86
2023-02-23T07:30:52.020Z,52.61
2023-02-23T07:31:26.783Z,52.54
2023-02-23T07:31:59.168Z,52.14
2023-02-23T07:32:31.527Z,52.09
2023-02-23T07:33:06.274Z,52.32
2023-02-23T07:33:38.477Z,52.29
2023-02-23T07:34:10.599Z,52.41
2023-02-23T07:34:46.100Z,52.09
2023-02-23T07:35:18.379Z,52.06
2023-02-23T07:35:50.768Z,52.40
2023-02-23T07:36:26.656Z,52.53
2023-02-23T07:36:58.752Z,52.23
2023-02-23T07:37:33.507Z,52.17
2023-02-23T07:38:07.544Z,52.34
2023-02-23T07:38:42.389Z,51.88
2023-02-23T07:39:14.553Z,51.91
2023-02-23T07:39:46.667Z,51.91
2023-02-23T07:40:22.137Z,51.93
2023-02-23T07:40:54.840Z,51.69
2023-02-23T07:41:29.617Z,51.87
2023-02-23T07:42:04.413Z,51.78
2023-02-23T07:42:36.518Z,51.76
2023-02-23T07:43:12.289Z,51.90
2023-02-23T07:43:44.863Z,51.60
2023-02-23T07:44:19.683Z,51.81
2023-02-23T07:44:51.805Z,51.84
2023-02-23T07:45:25.040Z,51.96
2023-02-23T07:46:02.513Z,51.43
2023-02-23T07:46:34.669Z,51.89
2023-02-23T07:47:09.823Z,51.29
2023-02-23T07:47:41.905Z,51.68
2023-02-23T07:48:14.025Z,51.21
2023-02-23T07:48:48.809Z,51.23
2023-02-23T07:49:20.911Z,51.18
2023-02-23T07:49:53.041Z,51.10
2023-02-23T07:50:27.680Z,51.43
2023-02-23T07:50:59.832Z,51.46
2023-02-23T07:51:34.595Z,51.38
2023-02-23T07:52:06.700Z,51.26
2023-02-23T07:52:40.233Z,51.28
2023-02-23T07:53:15.609Z,51.29
2023-02-23T07:53:47.817Z,51.07
2023-02-23T07:54:20.116Z,50.96
2023-02-23T07:54:54.909Z,50.96
2023-02-23T07:55:27.023Z,51.09
2023-02-23T07:55:59.677Z,51.55
2023-02-23T07:56:37.006Z,51.39
2023-02-23T07:57:09.322Z,50.99
2023-02-23T07:57:41.454Z,50.95
2023-02-23T07:58:16.220Z,51.18
2023-02-23T07:58:48.312Z,50.80
2023-02-23T07:59:20.590Z,51.17